sensor_id;sensor_type;location;lat;lon;timestamp;pressure;altitude;pressure_sealevel;temperature;humidity
10539;BME280;5317;49.048;8.468;2022-10-16T00:01:41;112049.66;;;-142.21;100.00
10539;BME280;5317;49.048;8.468;2022-10-16T00:04:09;112049.66;;;-142.21;100.00
10539;BME280;5317;49.048;8.468;2022-10-16T00:06:37;112049.66;;;-142.21;100.00
10539;BME280;5317;49.048;8.468;2022-10-16T00:09:04;112049.66;;;-142.21;100.00
10539;BME280;5317;49.048;8.468;2022-10-16T00:11:35;112049.66;;;-142.21;100.00
10539;BME280;5317;49.048;8.468;2022-10-16T00:14:07;112049.66;;;-142.21;100.00
10539;BME280;5317;49.048;8.468;2022-10-16T00:16:34;112049.66;;;-142.21;100.00
10539;BME280;5317;49.048;8.468;2022-10-16T00:19:02;112049.66;;;-142.21;100.00
10539;BME280;5317;49.048;8.468;2022-10-16T00:21:31;112049.66;;;-142.21;100.00
10539;BME280;5317;49.048;8.468;2022-10-16T00:24:02;112049.66;;;-142.21;100.00
10539;BME280;5317;49.048;8.468;2022-10-16T00:26:33;112049.66;;;-142.21;100.00
10539;BME280;5317;49.048;8.468;2022-10-16T00:29:00;112049.66;;;-142.21;100.00
10539;BME280;5317;49.048;8.468;2022-10-16T00:31:29;112049.66;;;-142.21;100.00
10539;BME280;5317;49.048;8.468;2022-10-16T00:33:57;112049.66;;;-142.21;100.00
10539;BME280;5317;49.048;8.468;2022-10-16T00:36:26;112049.66;;;-142.21;100.00
10539;BME280;5317;49.048;8.468;2022-10-16T00:38:55;112049.66;;;-142.21;100.00
10539;BME280;5317;49.048;8.468;2022-10-16T00:41:24;112049.66;;;-142.21;100.00
10539;BME280;5317;49.048;8.468;2022-10-16T00:43:55;112049.66;;;-142.21;100.00
10539;BME280;5317;49.048;8.468;2022-10-16T00:46:25;112049.66;;;-142.21;100.00
10539;BME280;5317;49.048;8.468;2022-10-16T00:48:57;112049.66;;;-142.21;100.00
10539;BME280;5317;49.048;8.468;2022-10-16T00:51:32;112049.66;;;-142.21;100.00
10539;BME280;5317;49.048;8.468;2022-10-16T00:54:00;112049.66;;;-142.21;100.00
10539;BME280;5317;49.048;8.468;2022-10-16T00:56:29;112049.66;;;-142.21;100.00
10539;BME280;5317;49.048;8.468;2022-10-16T00:58:57;112049.66;;;-142.21;100.00
10539;BME280;5317;49.048;8.468;2022-10-16T01:01:26;112049.66;;;-142.21;100.00
10539;BME280;5317;49.048;8.468;2022-10-16T01:03:54;112049.66;;;-142.21;100.00
10539;BME280;5317;49.048;8.468;2022-10-16T01:06:25;112049.66;;;-142.21;100.00
10539;BME280;5317;49.048;8.468;2022-10-16T01:09:11;112049.66;;;-142.21;100.00
10539;BME280;5317;49.048;8.468;2022-10-16T01:11:51;112049.66;;;-142.21;100.00
10539;BME280;5317;49.048;8.468;2022-10-16T01:14:27;112049.66;;;-142.21;100.00
10539;BME280;5317;49.048;8.468;2022-10-16T01:17:05;112049.66;;;-142.21;100.00
10539;BME280;5317;49.048;8.468;2022-10-16T01:20:03;112049.66;;;-142.21;100.00
10539;BME280;5317;49.048;8.468;2022-10-16T01:22:44;112049.66;;;-142.21;100.00
10539;BME280;5317;49.048;8.468;2022-10-16T01:25:25;112049.66;;;-142.21;100.00
10539;BME280;5317;49.048;8.468;2022-10-16T01:27:59;112049.66;;;-142.21;100.00
10539;BME280;5317;49.048;8.468;2022-10-16T01:30:32;112049.66;;;-142.21;100.00
10539;BME280;5317;49.048;8.468;2022-10-16T01:33:06;112049.66;;;-142.21;100.00
10539;BME280;5317;49.048;8.468;2022-10-16T01:35:38;112049.66;;;-142.21;100.00
10539;BME280;5317;49.048;8.468;2022-10-16T01:38:15;112049.66;;;-142.21;100.00
10539;BME280;5317;49.048;8.468;2022-10-16T01:40:50;112049.66;;;-142.21;100.00
10539;BME280;5317;49.048;8.468;2022-10-16T01:43:23;112049.66;;;-142.21;100.00
10539;BME280;5317;49.048;8.468;2022-10-16T01:45:53;112049.66;;;-142.21;100.00
10539;BME280;5317;49.048;8.468;2022-10-16T01:48:22;112049.66;;;-142.21;100.00
10539;BME280;5317;49.048;8.468;2022-10-16T01:51:00;112049.66;;;-142.21;100.00
10539;BME280;5317;49.048;8.468;2022-10-16T01:53:29;112049.66;;;-142.21;100.00
10539;BME280;5317;49.048;8.468;2022-10-16T01:55:59;112049.66;;;-142.21;100.00
10539;BME280;5317;49.048;8.468;2022-10-16T01:58:30;112049.66;;;-142.21;100.00
10539;BME280;5317;49.048;8.468;2022-10-16T02:01:03;112049.66;;;-142.21;100.00
10539;BME280;5317;49.048;8.468;2022-10-16T02:03:34;112049.66;;;-142.21;100.00
10539;BME280;5317;49.048;8.468;2022-10-16T02:06:01;112049.66;;;-142.21;100.00
10539;BME280;5317;49.048;8.468;2022-10-16T02:08:30;112049.66;;;-142.21;100.00
10539;BME280;5317;49.048;8.468;2022-10-16T02:11:00;112049.66;;;-142.21;100.00
10539;BME280;5317;49.048;8.468;2022-10-16T02:13:35;112049.66;;;-142.21;100.00
10539;BME280;5317;49.048;8.468;2022-10-16T02:16:05;112049.66;;;-142.21;100.00
10539;BME280;5317;49.048;8.468;2022-10-16T02:18:33;112049.66;;;-142.21;100.00
10539;BME280;5317;49.048;8.468;2022-10-16T02:21:06;112049.66;;;-142.21;100.00
10539;BME280;5317;49.048;8.468;2022-10-16T02:23:48;112049.66;;;-142.21;100.00
10539;BME280;5317;49.048;8.468;2022-10-16T02:26:27;112049.66;;;-142.21;100.00
10539;BME280;5317;49.048;8.468;2022-10-16T02:29:03;112049.66;;;-142.21;100.00
10539;BME280;5317;49.048;8.468;2022-10-16T02:31:35;112049.66;;;-142.21;100.00
10539;BME280;5317;49.048;8.468;2022-10-16T02:34:06;112049.66;;;-142.21;100.00
10539;BME280;5317;49.048;8.468;2022-10-16T02:36:39;112049.66;;;-142.21;100.00
10539;BME280;5317;49.048;8.468;2022-10-16T02:39:08;112049.66;;;-142.21;100.00
10539;BME280;5317;49.048;8.468;2022-10-16T02:41:39;112049.66;;;-142.21;100.00
10539;BME280;5317;49.048;8.468;2022-10-16T02:44:08;112049.66;;;-142.21;100.00
10539;BME280;5317;49.048;8.468;2022-10-16T02:46:35;112049.66;;;-142.21;100.00
10539;BME280;5317;49.048;8.468;2022-10-16T02:49:02;112049.66;;;-142.21;100.00
10539;BME280;5317;49.048;8.468;2022-10-16T02:51:30;112049.66;;;-142.21;100.00
10539;BME280;5317;49.048;8.468;2022-10-16T02:53:57;112049.66;;;-142.21;100.00
10539;BME280;5317;49.048;8.468;2022-10-16T02:56:24;112049.66;;;-142.21;100.00
10539;BME280;5317;49.048;8.468;2022-10-16T02:58:51;112049.66;;;-142.21;100.00
10539;BME280;5317;49.048;8.468;2022-10-16T03:01:19;112049.66;;;-142.21;100.00
10539;BME280;5317;49.048;8.468;2022-10-16T03:03:47;112049.66;;;-142.21;100.00
10539;BME280;5317;49.048;8.468;2022-10-16T03:06:14;112049.66;;;-142.21;100.00
10539;BME280;5317;49.048;8.468;2022-10-16T03:08:41;112049.66;;;-142.21;100.00
10539;BME280;5317;49.048;8.468;2022-10-16T03:11:08;112049.66;;;-142.21;100.00
10539;BME280;5317;49.048;8.468;2022-10-16T03:13:35;112049.66;;;-142.21;100.00
10539;BME280;5317;49.048;8.468;2022-10-16T03:16:03;112049.66;;;-142.21;100.00
10539;BME280;5317;49.048;8.468;2022-10-16T03:18:31;112049.66;;;-142.21;100.00
10539;BME280;5317;49.048;8.468;2022-10-16T03:20:59;112049.66;;;-142.21;100.00
10539;BME280;5317;49.048;8.468;2022-10-16T03:23:26;112049.66;;;-142.21;100.00
10539;BME280;5317;49.048;8.468;2022-10-16T03:25:53;112049.66;;;-142.21;100.00
10539;BME280;5317;49.048;8.468;2022-10-16T03:28:20;112049.66;;;-142.21;100.00
10539;BME280;5317;49.048;8.468;2022-10-16T03:30:48;112049.66;;;-142.21;100.00
10539;BME280;5317;49.048;8.468;2022-10-16T03:33:15;112049.66;;;-142.21;100.00
10539;BME280;5317;49.048;8.468;2022-10-16T03:35:51;112049.66;;;-142.21;100.00
10539;BME280;5317;49.048;8.468;2022-10-16T03:38:19;112049.66;;;-142.21;100.00
10539;BME280;5317;49.048;8.468;2022-10-16T03:40:47;112049.66;;;-142.21;100.00
10539;BME280;5317;49.048;8.468;2022-10-16T03:43:14;112049.66;;;-142.21;100.00
10539;BME280;5317;49.048;8.468;2022-10-16T03:45:41;112049.66;;;-142.21;100.00
10539;BME280;5317;49.048;8.468;2022-10-16T03:48:09;112049.66;;;-142.21;100.00
10539;BME280;5317;49.048;8.468;2022-10-16T03:50:36;112049.66;;;-142.21;100.00
10539;BME280;5317;49.048;8.468;2022-10-16T03:53:04;112049.66;;;-142.21;100.00
10539;BME280;5317;49.048;8.468;2022-10-16T03:55:31;112049.66;;;-142.21;100.00
10539;BME280;5317;49.048;8.468;2022-10-16T03:57:59;112049.66;;;-142.21;100.00
10539;BME280;5317;49.048;8.468;2022-10-16T04:00:26;112049.66;;;-142.21;100.00
10539;BME280;5317;49.048;8.468;2022-10-16T04:02:53;112049.66;;;-142.21;100.00
10539;BME280;5317;49.048;8.468;2022-10-16T04:05:20;112049.66;;;-142.21;100.00
10539;BME280;5317;49.048;8.468;2022-10-16T04:07:48;112049.66;;;-142.21;100.00
10539;BME280;5317;49.048;8.468;2022-10-16T04:10:16;112049.66;;;-142.21;100.00
10539;BME280;5317;49.048;8.468;2022-10-16T04:12:44;112049.66;;;-142.21;100.00
10539;BME280;5317;49.048;8.468;2022-10-16T04:15:11;112049.66;;;-142.21;100.00
10539;BME280;5317;49.048;8.468;2022-10-16T04:17:38;112049.66;;;-142.21;100.00
10539;BME280;5317;49.048;8.468;2022-10-16T04:20:06;112049.66;;;-142.21;100.00
10539;BME280;5317;49.048;8.468;2022-10-16T04:22:34;112049.66;;;-142.21;100.00
10539;BME280;5317;49.048;8.468;2022-10-16T04:25:01;112049.66;;;-142.21;100.00
10539;BME280;5317;49.048;8.468;2022-10-16T04:27:29;112049.66;;;-142.21;100.00
10539;BME280;5317;49.048;8.468;2022-10-16T04:29:57;112049.66;;;-142.21;100.00
10539;BME280;5317;49.048;8.468;2022-10-16T04:32:24;112049.66;;;-142.21;100.00
10539;BME280;5317;49.048;8.468;2022-10-16T04:34:51;112049.66;;;-142.21;100.00
10539;BME280;5317;49.048;8.468;2022-10-16T04:37:24;112049.66;;;-142.21;100.00
10539;BME280;5317;49.048;8.468;2022-10-16T04:39:52;112049.66;;;-142.21;100.00
10539;BME280;5317;49.048;8.468;2022-10-16T04:42:21;112049.66;;;-142.21;100.00
10539;BME280;5317;49.048;8.468;2022-10-16T04:44:50;112049.66;;;-142.21;100.00
10539;BME280;5317;49.048;8.468;2022-10-16T04:47:17;112049.66;;;-142.21;100.00
10539;BME280;5317;49.048;8.468;2022-10-16T04:49:44;112049.66;;;-142.21;100.00
10539;BME280;5317;49.048;8.468;2022-10-16T04:52:13;112049.66;;;-142.21;100.00
10539;BME280;5317;49.048;8.468;2022-10-16T04:54:40;112049.66;;;-142.21;100.00
10539;BME280;5317;49.048;8.468;2022-10-16T04:57:08;112049.66;;;-142.21;100.00
10539;BME280;5317;49.048;8.468;2022-10-16T04:59:35;112049.66;;;-142.21;100.00
10539;BME280;5317;49.048;8.468;2022-10-16T05:02:04;112049.66;;;-142.21;100.00
10539;BME280;5317;49.048;8.468;2022-10-16T05:04:31;112049.66;;;-142.21;100.00
10539;BME280;5317;49.048;8.468;2022-10-16T05:06:58;112049.66;;;-142.21;100.00
10539;BME280;5317;49.048;8.468;2022-10-16T05:09:25;112049.66;;;-142.21;100.00
10539;BME280;5317;49.048;8.468;2022-10-16T05:11:52;112049.66;;;-142.21;100.00
10539;BME280;5317;49.048;8.468;2022-10-16T05:14:19;112049.66;;;-142.21;100.00
10539;BME280;5317;49.048;8.468;2022-10-16T05:16:47;112049.66;;;-142.21;100.00
10539;BME280;5317;49.048;8.468;2022-10-16T05:19:16;112049.66;;;-142.21;100.00
10539;BME280;5317;49.048;8.468;2022-10-16T05:21:43;112049.66;;;-142.21;100.00
10539;BME280;5317;49.048;8.468;2022-10-16T05:24:10;112049.66;;;-142.21;100.00
10539;BME280;5317;49.048;8.468;2022-10-16T05:26:37;112049.66;;;-142.21;100.00
10539;BME280;5317;49.048;8.468;2022-10-16T05:29:04;112049.66;;;-142.21;100.00
10539;BME280;5317;49.048;8.468;2022-10-16T05:31:32;112049.66;;;-142.21;100.00
10539;BME280;5317;49.048;8.468;2022-10-16T05:33:59;112049.66;;;-142.21;100.00
10539;BME280;5317;49.048;8.468;2022-10-16T05:36:31;112049.66;;;-142.21;100.00
10539;BME280;5317;49.048;8.468;2022-10-16T05:38:58;112049.66;;;-142.21;100.00
10539;BME280;5317;49.048;8.468;2022-10-16T05:41:25;112049.66;;;-142.21;100.00
10539;BME280;5317;49.048;8.468;2022-10-16T05:43:52;112049.66;;;-142.21;100.00
10539;BME280;5317;49.048;8.468;2022-10-16T05:46:20;112049.66;;;-142.21;100.00
10539;BME280;5317;49.048;8.468;2022-10-16T05:48:47;112049.66;;;-142.21;100.00
10539;BME280;5317;49.048;8.468;2022-10-16T05:51:15;112049.66;;;-142.21;100.00
10539;BME280;5317;49.048;8.468;2022-10-16T05:53:44;112049.66;;;-142.21;100.00
10539;BME280;5317;49.048;8.468;2022-10-16T05:56:11;112049.66;;;-142.21;100.00
10539;BME280;5317;49.048;8.468;2022-10-16T05:58:39;112049.66;;;-142.21;100.00
10539;BME280;5317;49.048;8.468;2022-10-16T06:01:10;112049.66;;;-142.21;100.00
10539;BME280;5317;49.048;8.468;2022-10-16T06:03:39;112049.66;;;-142.21;100.00
10539;BME280;5317;49.048;8.468;2022-10-16T06:06:11;112049.66;;;-142.21;100.00
10539;BME280;5317;49.048;8.468;2022-10-16T06:08:40;112049.66;;;-142.21;100.00
10539;BME280;5317;49.048;8.468;2022-10-16T06:11:12;112049.66;;;-142.21;100.00
10539;BME280;5317;49.048;8.468;2022-10-16T06:13:40;112049.66;;;-142.21;100.00
10539;BME280;5317;49.048;8.468;2022-10-16T06:16:11;112049.66;;;-142.21;100.00
10539;BME280;5317;49.048;8.468;2022-10-16T06:18:39;112049.66;;;-142.21;100.00
10539;BME280;5317;49.048;8.468;2022-10-16T06:21:12;112049.66;;;-142.21;100.00
10539;BME280;5317;49.048;8.468;2022-10-16T06:23:41;112049.66;;;-142.21;100.00
10539;BME280;5317;49.048;8.468;2022-10-16T06:26:13;112049.66;;;-142.21;100.00
10539;BME280;5317;49.048;8.468;2022-10-16T06:28:40;112049.66;;;-142.21;100.00
10539;BME280;5317;49.048;8.468;2022-10-16T06:31:10;112049.66;;;-142.21;100.00
10539;BME280;5317;49.048;8.468;2022-10-16T06:33:39;112049.66;;;-142.21;100.00
10539;BME280;5317;49.048;8.468;2022-10-16T06:36:09;112049.66;;;-142.21;100.00
10539;BME280;5317;49.048;8.468;2022-10-16T06:38:40;112049.66;;;-142.21;100.00
10539;BME280;5317;49.048;8.468;2022-10-16T06:41:13;112049.66;;;-142.21;100.00
10539;BME280;5317;49.048;8.468;2022-10-16T06:43:45;112049.66;;;-142.21;100.00
10539;BME280;5317;49.048;8.468;2022-10-16T06:46:16;112049.66;;;-142.21;100.00
10539;BME280;5317;49.048;8.468;2022-10-16T06:48:43;112049.66;;;-142.21;100.00
10539;BME280;5317;49.048;8.468;2022-10-16T06:51:14;112049.66;;;-142.21;100.00
10539;BME280;5317;49.048;8.468;2022-10-16T06:53:44;112049.66;;;-142.21;100.00
10539;BME280;5317;49.048;8.468;2022-10-16T06:56:16;112049.66;;;-142.21;100.00
10539;BME280;5317;49.048;8.468;2022-10-16T06:58:45;112049.66;;;-142.21;100.00
10539;BME280;5317;49.048;8.468;2022-10-16T07:01:17;112049.66;;;-142.21;100.00
10539;BME280;5317;49.048;8.468;2022-10-16T07:03:46;112049.66;;;-142.21;100.00
10539;BME280;5317;49.048;8.468;2022-10-16T07:06:18;112049.66;;;-142.21;100.00
10539;BME280;5317;49.048;8.468;2022-10-16T07:08:46;112049.66;;;-142.21;100.00
10539;BME280;5317;49.048;8.468;2022-10-16T07:11:27;112049.66;;;-142.21;100.00
10539;BME280;5317;49.048;8.468;2022-10-16T07:13:54;112049.66;;;-142.21;100.00
10539;BME280;5317;49.048;8.468;2022-10-16T07:16:25;112049.66;;;-142.21;100.00
10539;BME280;5317;49.048;8.468;2022-10-16T07:18:54;112049.66;;;-142.21;100.00
10539;BME280;5317;49.048;8.468;2022-10-16T07:21:26;112049.66;;;-142.21;100.00
10539;BME280;5317;49.048;8.468;2022-10-16T07:23:56;112049.66;;;-142.21;100.00
10539;BME280;5317;49.048;8.468;2022-10-16T07:26:26;112049.66;;;-142.21;100.00
10539;BME280;5317;49.048;8.468;2022-10-16T07:28:54;112049.66;;;-142.21;100.00
10539;BME280;5317;49.048;8.468;2022-10-16T07:31:21;112049.66;;;-142.21;100.00
10539;BME280;5317;49.048;8.468;2022-10-16T07:33:50;112049.66;;;-142.21;100.00
10539;BME280;5317;49.048;8.468;2022-10-16T07:36:19;112049.66;;;-142.21;100.00
10539;BME280;5317;49.048;8.468;2022-10-16T07:38:47;112049.66;;;-142.21;100.00
10539;BME280;5317;49.048;8.468;2022-10-16T07:41:17;112049.66;;;-142.21;100.00
10539;BME280;5317;49.048;8.468;2022-10-16T07:43:48;112049.66;;;-142.21;100.00
10539;BME280;5317;49.048;8.468;2022-10-16T07:46:17;112049.66;;;-142.21;100.00
10539;BME280;5317;49.048;8.468;2022-10-16T07:48:45;112049.66;;;-142.21;100.00
10539;BME280;5317;49.048;8.468;2022-10-16T07:51:15;112049.66;;;-142.21;100.00
10539;BME280;5317;49.048;8.468;2022-10-16T07:53:47;112049.66;;;-142.21;100.00
10539;BME280;5317;49.048;8.468;2022-10-16T07:56:15;112049.66;;;-142.21;100.00
10539;BME280;5317;49.048;8.468;2022-10-16T07:58:43;112049.66;;;-142.21;100.00
10539;BME280;5317;49.048;8.468;2022-10-16T08:01:14;112049.66;;;-142.21;100.00
10539;BME280;5317;49.048;8.468;2022-10-16T08:03:42;112049.66;;;-142.21;100.00
10539;BME280;5317;49.048;8.468;2022-10-16T08:06:10;112049.66;;;-142.21;100.00
10539;BME280;5317;49.048;8.468;2022-10-16T08:08:40;112049.66;;;-142.21;100.00
10539;BME280;5317;49.048;8.468;2022-10-16T08:11:08;112049.66;;;-142.21;100.00
10539;BME280;5317;49.048;8.468;2022-10-16T08:13:36;112049.66;;;-142.21;100.00
10539;BME280;5317;49.048;8.468;2022-10-16T08:16:03;112049.66;;;-142.21;100.00
10539;BME280;5317;49.048;8.468;2022-10-16T08:18:35;112049.66;;;-142.21;100.00
10539;BME280;5317;49.048;8.468;2022-10-16T08:21:05;112049.66;;;-142.21;100.00
10539;BME280;5317;49.048;8.468;2022-10-16T08:23:33;112049.66;;;-142.21;100.00
10539;BME280;5317;49.048;8.468;2022-10-16T08:26:04;112049.66;;;-142.21;100.00
10539;BME280;5317;49.048;8.468;2022-10-16T08:28:33;112049.66;;;-142.21;100.00
10539;BME280;5317;49.048;8.468;2022-10-16T08:31:09;112049.66;;;-142.21;100.00
10539;BME280;5317;49.048;8.468;2022-10-16T08:33:38;112049.66;;;-142.21;100.00
10539;BME280;5317;49.048;8.468;2022-10-16T08:36:09;112049.66;;;-142.21;100.00
10539;BME280;5317;49.048;8.468;2022-10-16T08:38:36;112049.66;;;-142.21;100.00
10539;BME280;5317;49.048;8.468;2022-10-16T08:41:28;112049.66;;;-142.21;100.00
10539;BME280;5317;49.048;8.468;2022-10-16T08:44:30;112049.66;;;-142.21;100.00
10539;BME280;5317;49.048;8.468;2022-10-16T08:47:13;112049.66;;;-142.21;100.00
10539;BME280;5317;49.048;8.468;2022-10-16T08:49:56;112049.66;;;-142.21;100.00
10539;BME280;5317;49.048;8.468;2022-10-16T08:52:29;112049.66;;;-142.21;100.00
10539;BME280;5317;49.048;8.468;2022-10-16T08:54:58;112049.66;;;-142.21;100.00
10539;BME280;5317;49.048;8.468;2022-10-16T08:57:28;112049.66;;;-142.21;100.00
10539;BME280;5317;49.048;8.468;2022-10-16T09:00:05;112049.66;;;-142.21;100.00
10539;BME280;5317;49.048;8.468;2022-10-16T09:02:45;112049.66;;;-142.21;100.00
10539;BME280;5317;49.048;8.468;2022-10-16T09:05:41;112049.66;;;-142.21;100.00
10539;BME280;5317;49.048;8.468;2022-10-16T09:08:23;112049.66;;;-142.21;100.00
10539;BME280;5317;49.048;8.468;2022-10-16T09:11:00;112049.66;;;-142.21;100.00
10539;BME280;5317;49.048;8.468;2022-10-16T09:13:40;112049.66;;;-142.21;100.00
10539;BME280;5317;49.048;8.468;2022-10-16T09:16:19;112049.66;;;-142.21;100.00
10539;BME280;5317;49.048;8.468;2022-10-16T09:18:58;112049.66;;;-142.21;100.00
10539;BME280;5317;49.048;8.468;2022-10-16T09:21:31;112049.66;;;-142.21;100.00
10539;BME280;5317;49.048;8.468;2022-10-16T09:24:10;112049.66;;;-142.21;100.00
10539;BME280;5317;49.048;8.468;2022-10-16T09:26:38;112049.66;;;-142.21;100.00
10539;BME280;5317;49.048;8.468;2022-10-16T09:29:06;112049.66;;;-142.21;100.00
10539;BME280;5317;49.048;8.468;2022-10-16T09:31:36;112049.66;;;-142.21;100.00
10539;BME280;5317;49.048;8.468;2022-10-16T09:34:08;112049.66;;;-142.21;100.00
10539;BME280;5317;49.048;8.468;2022-10-16T09:36:44;112049.66;;;-142.21;100.00
10539;BME280;5317;49.048;8.468;2022-10-16T09:39:13;112049.66;;;-142.21;100.00
10539;BME280;5317;49.048;8.468;2022-10-16T09:41:44;112049.66;;;-142.21;100.00
10539;BME280;5317;49.048;8.468;2022-10-16T09:44:23;112049.66;;;-142.21;100.00
10539;BME280;5317;49.048;8.468;2022-10-16T09:47:02;112049.66;;;-142.21;100.00
10539;BME280;5317;49.048;8.468;2022-10-16T09:49:29;112049.66;;;-142.21;100.00
10539;BME280;5317;49.048;8.468;2022-10-16T09:52:10;112049.66;;;-142.21;100.00
10539;BME280;5317;49.048;8.468;2022-10-16T09:54:50;112049.66;;;-142.21;100.00
10539;BME280;5317;49.048;8.468;2022-10-16T09:57:19;112049.66;;;-142.21;100.00
10539;BME280;5317;49.048;8.468;2022-10-16T09:59:48;112049.66;;;-142.21;100.00
10539;BME280;5317;49.048;8.468;2022-10-16T10:02:18;112049.66;;;-142.21;100.00
10539;BME280;5317;49.048;8.468;2022-10-16T10:04:51;112049.66;;;-142.21;100.00
10539;BME280;5317;49.048;8.468;2022-10-16T10:07:26;112049.66;;;-142.21;100.00
10539;BME280;5317;49.048;8.468;2022-10-16T10:09:56;112049.66;;;-142.21;100.00
10539;BME280;5317;49.048;8.468;2022-10-16T10:12:31;112049.66;;;-142.21;100.00
10539;BME280;5317;49.048;8.468;2022-10-16T10:15:06;112049.66;;;-142.21;100.00
10539;BME280;5317;49.048;8.468;2022-10-16T10:17:44;112049.66;;;-142.21;100.00
10539;BME280;5317;49.048;8.468;2022-10-16T10:20:23;112049.66;;;-142.21;100.00
10539;BME280;5317;49.048;8.468;2022-10-16T10:22:54;112049.66;;;-142.21;100.00
10539;BME280;5317;49.048;8.468;2022-10-16T10:25:44;112049.66;;;-142.21;100.00
10539;BME280;5317;49.048;8.468;2022-10-16T10:28:44;112049.66;;;-142.21;100.00
10539;BME280;5317;49.048;8.468;2022-10-16T10:31:21;112049.66;;;-142.21;100.00
10539;BME280;5317;49.048;8.468;2022-10-16T10:33:59;112049.66;;;-142.21;100.00
10539;BME280;5317;49.048;8.468;2022-10-16T10:36:35;112049.66;;;-142.21;100.00
10539;BME280;5317;49.048;8.468;2022-10-16T10:39:11;112049.66;;;-142.21;100.00
10539;BME280;5317;49.048;8.468;2022-10-16T10:42:12;112049.66;;;-142.21;100.00
10539;BME280;5317;49.048;8.468;2022-10-16T10:45:17;112049.66;;;-142.21;100.00
10539;BME280;5317;49.048;8.468;2022-10-16T10:48:12;112049.66;;;-142.21;100.00
10539;BME280;5317;49.048;8.468;2022-10-16T10:50:49;112049.66;;;-142.21;100.00
10539;BME280;5317;49.048;8.468;2022-10-16T10:53:33;112049.66;;;-142.21;100.00
10539;BME280;5317;49.048;8.468;2022-10-16T10:56:19;112049.66;;;-142.21;98.96
10539;BME280;5317;49.048;8.468;2022-10-16T10:59:35;112049.66;;;-142.21;98.36
10539;BME280;5317;49.048;8.468;2022-10-16T11:02:16;112049.66;;;-142.21;97.50
10539;BME280;5317;49.048;8.468;2022-10-16T11:05:27;112049.66;;;-142.21;98.67
10539;BME280;5317;49.048;8.468;2022-10-16T11:08:00;112049.66;;;-142.21;99.47
10539;BME280;5317;49.048;8.468;2022-10-16T11:10:38;112049.66;;;-142.21;100.00
10539;BME280;5317;49.048;8.468;2022-10-16T11:13:20;112049.66;;;-142.21;100.00
10539;BME280;5317;49.048;8.468;2022-10-16T11:15:58;112049.66;;;-142.21;100.00
10539;BME280;5317;49.048;8.468;2022-10-16T11:18:33;112049.66;;;-142.21;100.00
10539;BME280;5317;49.048;8.468;2022-10-16T11:21:08;112049.66;;;-142.21;99.20
10539;BME280;5317;49.048;8.468;2022-10-16T11:23:43;112049.66;;;-142.21;98.26
10539;BME280;5317;49.048;8.468;2022-10-16T11:26:16;112049.66;;;-142.21;98.54
10539;BME280;5317;49.048;8.468;2022-10-16T11:28:50;112049.66;;;-142.21;96.15
10539;BME280;5317;49.048;8.468;2022-10-16T11:31:28;112049.66;;;-142.21;97.62
10539;BME280;5317;49.048;8.468;2022-10-16T11:34:06;112049.66;;;-142.21;95.91
10539;BME280;5317;49.048;8.468;2022-10-16T11:36:42;112049.66;;;-142.21;97.33
10539;BME280;5317;49.048;8.468;2022-10-16T11:39:21;112049.66;;;-142.21;96.72
10539;BME280;5317;49.048;8.468;2022-10-16T11:41:51;112049.66;;;-142.21;96.72
10539;BME280;5317;49.048;8.468;2022-10-16T11:44:41;112049.66;;;-142.21;97.53
10539;BME280;5317;49.048;8.468;2022-10-16T11:47:29;112049.66;;;-142.21;98.59
10539;BME280;5317;49.048;8.468;2022-10-16T11:50:03;112049.66;;;-142.21;96.68
10539;BME280;5317;49.048;8.468;2022-10-16T11:52:40;112049.66;;;-142.21;97.72
10539;BME280;5317;49.048;8.468;2022-10-16T11:55:18;112049.66;;;-142.21;95.81
10539;BME280;5317;49.048;8.468;2022-10-16T11:57:51;112049.66;;;-142.21;95.84
10539;BME280;5317;49.048;8.468;2022-10-16T12:00:26;112049.66;;;-142.21;90.55
10539;BME280;5317;49.048;8.468;2022-10-16T12:03:03;112049.66;;;-142.21;88.31
10539;BME280;5317;49.048;8.468;2022-10-16T12:05:58;112049.66;;;-142.21;88.69
10539;BME280;5317;49.048;8.468;2022-10-16T12:08:29;112049.66;;;-142.21;84.79
10539;BME280;5317;49.048;8.468;2022-10-16T12:11:08;112049.66;;;-142.21;84.37
10539;BME280;5317;49.048;8.468;2022-10-16T12:13:39;112049.66;;;-142.21;81.18
10539;BME280;5317;49.048;8.468;2022-10-16T12:16:24;112049.66;;;-142.21;82.47
10539;BME280;5317;49.048;8.468;2022-10-16T12:19:11;112049.66;;;-142.21;83.73
10539;BME280;5317;49.048;8.468;2022-10-16T12:21:40;112049.66;;;-142.21;85.04
10539;BME280;5317;49.048;8.468;2022-10-16T12:24:31;112049.66;;;-142.21;82.66
10539;BME280;5317;49.048;8.468;2022-10-16T12:27:00;112049.66;;;-142.21;84.43
10539;BME280;5317;49.048;8.468;2022-10-16T12:29:36;112049.66;;;-142.21;80.36
10539;BME280;5317;49.048;8.468;2022-10-16T12:32:27;112049.66;;;-142.21;69.64
10539;BME280;5317;49.048;8.468;2022-10-16T12:34:59;112049.66;;;-142.21;63.92
10539;BME280;5317;49.048;8.468;2022-10-16T12:37:33;112049.66;;;-142.21;66.71
10539;BME280;5317;49.048;8.468;2022-10-16T12:40:13;112049.66;;;-142.21;69.46
10539;BME280;5317;49.048;8.468;2022-10-16T12:42:42;112049.66;;;-142.21;70.51
10539;BME280;5317;49.048;8.468;2022-10-16T12:45:31;112049.66;;;-142.21;68.88
10539;BME280;5317;49.048;8.468;2022-10-16T12:48:02;112049.66;;;-142.21;73.33
10539;BME280;5317;49.048;8.468;2022-10-16T12:50:35;112049.66;;;-142.21;77.15
10539;BME280;5317;49.048;8.468;2022-10-16T12:53:17;112049.66;;;-142.21;74.70
10539;BME280;5317;49.048;8.468;2022-10-16T12:55:58;112049.66;;;-142.21;75.46
10539;BME280;5317;49.048;8.468;2022-10-16T12:58:53;112049.66;;;-142.21;78.85